sensor_id;sensor_type;location;lat;lon;timestamp;P1;durP1;ratioP1;P2;durP2;ratioP2
10166;SDS011;62970;53.130;8.244;2023-02-11T00:00:12;22.90;;;18.03;;
10166;SDS011;62970;53.130;8.244;2023-02-11T00:02:43;25.10;;;18.30;;
10166;SDS011;62970;53.130;8.244;2023-02-11T00:05:12;22.43;;;17.87;;
10166;SDS011;62970;53.130;8.244;2023-02-11T00:07:41;22.30;;;18.20;;
10166;SDS011;62970;53.130;8.244;2023-02-11T00:10:11;23.70;;;18.40;;
10166;SDS011;62970;53.130;8.244;2023-02-11T00:12:40;21.20;;;17.60;;
10166;SDS011;62970;53.130;8.244;2023-02-11T00:15:14;21.63;;;17.70;;
10166;SDS011;62970;53.130;8.244;2023-02-11T00:17:45;23.70;;;17.57;;
10166;SDS011;62970;53.130;8.244;2023-02-11T00:20:19;21.60;;;17.10;;
10166;SDS011;62970;53.130;8.244;2023-02-11T00:22:48;21.03;;;17.23;;
10166;SDS011;62970;53.130;8.244;2023-02-11T00:25:18;23.87;;;16.77;;
10166;SDS011;62970;53.130;8.244;2023-02-11T00:27:50;23.57;;;16.73;;
10166;SDS011;62970;53.130;8.244;2023-02-11T00:30:24;21.23;;;18.23;;
10166;SDS011;62970;53.130;8.244;2023-02-11T00:32:56;22.43;;;16.80;;
10166;SDS011;62970;53.130;8.244;2023-02-11T00:35:27;21.67;;;16.77;;
10166;SDS011;62970;53.130;8.244;2023-02-11T00:37:57;25.40;;;16.53;;
10166;SDS011;62970;53.130;8.244;2023-02-11T00:40:28;25.97;;;16.83;;
10166;SDS011;62970;53.130;8.244;2023-02-11T00:42:59;23.57;;;16.13;;
10166;SDS011;62970;53.130;8.244;2023-02-11T00:45:31;19.80;;;15.87;;
10166;SDS011;62970;53.130;8.244;2023-02-11T00:48:01;23.43;;;17.00;;
10166;SDS011;62970;53.130;8.244;2023-02-11T00:50:31;21.83;;;16.30;;
10166;SDS011;62970;53.130;8.244;2023-02-11T00:53:00;21.13;;;16.33;;
10166;SDS011;62970;53.130;8.244;2023-02-11T00:55:29;20.80;;;15.90;;
10166;SDS011;62970;53.130;8.244;2023-02-11T00:58:00;23.17;;;16.43;;
10166;SDS011;62970;53.130;8.244;2023-02-11T01:00:32;22.23;;;16.33;;
10166;SDS011;62970;53.130;8.244;2023-02-11T01:03:02;21.40;;;16.40;;
10166;SDS011;62970;53.130;8.244;2023-02-11T01:05:33;22.10;;;15.97;;
10166;SDS011;62970;53.130;8.244;2023-02-11T01:08:04;24.23;;;16.70;;
10166;SDS011;62970;53.130;8.244;2023-02-11T01:10:35;22.50;;;15.27;;
10166;SDS011;62970;53.130;8.244;2023-02-11T01:13:08;20.97;;;15.37;;
10166;SDS011;62970;53.130;8.244;2023-02-11T01:15:40;19.93;;;15.53;;
10166;SDS011;62970;53.130;8.244;2023-02-11T01:18:10;24.93;;;16.00;;
10166;SDS011;62970;53.130;8.244;2023-02-11T01:20:41;21.67;;;15.20;;
10166;SDS011;62970;53.130;8.244;2023-02-11T01:23:11;19.17;;;15.27;;
10166;SDS011;62970;53.130;8.244;2023-02-11T01:25:49;23.07;;;16.27;;
10166;SDS011;62970;53.130;8.244;2023-02-11T01:28:19;21.33;;;14.63;;
10166;SDS011;62970;53.130;8.244;2023-02-11T01:30:55;18.87;;;14.73;;
10166;SDS011;62970;53.130;8.244;2023-02-11T01:33:30;20.40;;;15.10;;
10166;SDS011;62970;53.130;8.244;2023-02-11T01:36:02;18.83;;;14.47;;
10166;SDS011;62970;53.130;8.244;2023-02-11T01:38:34;20.90;;;14.67;;
10166;SDS011;62970;53.130;8.244;2023-02-11T01:41:09;19.30;;;14.30;;
10166;SDS011;62970;53.130;8.244;2023-02-11T01:43:42;20.60;;;13.97;;
10166;SDS011;62970;53.130;8.244;2023-02-11T01:46:30;19.60;;;13.93;;
10166;SDS011;62970;53.130;8.244;2023-02-11T01:49:05;16.93;;;13.27;;
10166;SDS011;62970;53.130;8.244;2023-02-11T01:51:39;18.67;;;13.80;;
10166;SDS011;62970;53.130;8.244;2023-02-11T08:17:02;11.37;;;8.50;;
10166;SDS011;62970;53.130;8.244;2023-02-11T08:19:32;13.47;;;9.70;;
10166;SDS011;62970;53.130;8.244;2023-02-11T08:22:03;15.10;;;11.20;;
10166;SDS011;62970;53.130;8.244;2023-02-11T08:24:33;15.07;;;11.23;;
10166;SDS011;62970;53.130;8.244;2023-02-11T08:27:03;15.50;;;11.63;;
10166;SDS011;62970;53.130;8.244;2023-02-11T08:29:33;14.37;;;11.27;;
10166;SDS011;62970;53.130;8.244;2023-02-11T08:32:05;15.30;;;12.37;;
10166;SDS011;62970;53.130;8.244;2023-02-11T08:34:36;16.47;;;11.60;;
10166;SDS011;62970;53.130;8.244;2023-02-11T08:37:07;15.23;;;11.33;;
10166;SDS011;62970;53.130;8.244;2023-02-11T08:39:36;14.33;;;11.60;;
10166;SDS011;62970;53.130;8.244;2023-02-11T08:42:08;16.27;;;11.93;;
10166;SDS011;62970;53.130;8.244;2023-02-11T08:44:40;16.70;;;11.77;;
10166;SDS011;62970;53.130;8.244;2023-02-11T08:47:12;15.80;;;11.53;;
10166;SDS011;62970;53.130;8.244;2023-02-11T08:49:43;14.97;;;11.63;;
10166;SDS011;62970;53.130;8.244;2023-02-11T08:52:13;15.83;;;12.10;;
10166;SDS011;62970;53.130;8.244;2023-02-11T08:54:50;15.60;;;11.50;;
10166;SDS011;62970;53.130;8.244;2023-02-11T08:57:20;16.67;;;11.73;;
10166;SDS011;62970;53.130;8.244;2023-02-11T08:59:53;14.60;;;11.23;;
10166;SDS011;62970;53.130;8.244;2023-02-11T09:02:25;14.97;;;11.17;;
10166;SDS011;62970;53.130;8.244;2023-02-11T09:04:56;13.60;;;11.77;;
10166;SDS011;62970;53.130;8.244;2023-02-11T09:07:25;16.90;;;11.27;;
10166;SDS011;62970;53.130;8.244;2023-02-11T09:09:58;15.87;;;11.00;;
10166;SDS011;62970;53.130;8.244;2023-02-11T09:12:27;13.97;;;10.60;;
10166;SDS011;62970;53.130;8.244;2023-02-11T09:14:57;16.73;;;11.37;;
10166;SDS011;62970;53.130;8.244;2023-02-11T09:17:29;15.27;;;11.43;;
10166;SDS011;62970;53.130;8.244;2023-02-11T09:27:46;13.43;;;11.10;;
10166;SDS011;62970;53.130;8.244;2023-02-11T09:30:16;14.97;;;11.10;;
10166;SDS011;62970;53.130;8.244;2023-02-11T09:32:48;17.10;;;11.77;;
10166;SDS011;62970;53.130;8.244;2023-02-11T09:35:20;16.10;;;10.83;;
10166;SDS011;62970;53.130;8.244;2023-02-11T09:37:49;19.03;;;12.00;;
10166;SDS011;62970;53.130;8.244;2023-02-11T09:40:18;14.00;;;11.70;;
10166;SDS011;62970;53.130;8.244;2023-02-11T09:42:56;15.50;;;11.37;;
10166;SDS011;62970;53.130;8.244;2023-02-11T09:45:33;18.07;;;11.80;;
10166;SDS011;62970;53.130;8.244;2023-02-11T09:48:09;16.43;;;11.70;;
10166;SDS011;62970;53.130;8.244;2023-02-11T09:50:45;14.77;;;11.73;;
10166;SDS011;62970;53.130;8.244;2023-02-11T09:53:19;12.67;;;10.97;;
10166;SDS011;62970;53.130;8.244;2023-02-11T09:55:53;14.37;;;11.73;;
10166;SDS011;62970;53.130;8.244;2023-02-11T09:58:27;15.93;;;11.73;;
10166;SDS011;62970;53.130;8.244;2023-02-11T10:01:03;15.30;;;11.57;;
10166;SDS011;62970;53.130;8.244;2023-02-11T10:03:55;14.90;;;11.87;;
10166;SDS011;62970;53.130;8.244;2023-02-11T10:06:35;12.67;;;11.37;;
10166;SDS011;62970;53.130;8.244;2023-02-11T10:09:13;15.57;;;11.50;;
10166;SDS011;62970;53.130;8.244;2023-02-11T10:12:13;13.90;;;11.57;;
10166;SDS011;62970;53.130;8.244;2023-02-11T10:14:58;17.00;;;12.07;;
10166;SDS011;62970;53.130;8.244;2023-02-11T10:17:54;15.23;;;12.37;;
10166;SDS011;62970;53.130;8.244;2023-02-11T10:20:47;14.10;;;11.90;;
10166;SDS011;62970;53.130;8.244;2023-02-11T10:23:30;13.07;;;11.33;;
10166;SDS011;62970;53.130;8.244;2023-02-11T10:26:08;14.67;;;11.97;;
10166;SDS011;62970;53.130;8.244;2023-02-11T10:28:40;15.23;;;12.37;;
10166;SDS011;62970;53.130;8.244;2023-02-11T10:31:14;17.97;;;11.73;;
10166;SDS011;62970;53.130;8.244;2023-02-11T10:33:50;16.10;;;11.77;;
10166;SDS011;62970;53.130;8.244;2023-02-11T10:36:30;14.37;;;11.83;;
10166;SDS011;62970;53.130;8.244;2023-02-11T10:39:09;19.10;;;11.13;;
10166;SDS011;62970;53.130;8.244;2023-02-11T10:41:42;13.77;;;10.70;;
10166;SDS011;62970;53.130;8.244;2023-02-11T10:44:24;13.43;;;10.40;;
10166;SDS011;62970;53.130;8.244;2023-02-11T10:47:00;14.93;;;10.53;;
10166;SDS011;62970;53.130;8.244;2023-02-11T10:49:37;13.87;;;10.53;;
10166;SDS011;62970;53.130;8.244;2023-02-11T10:52:16;13.80;;;10.33;;
10166;SDS011;62970;53.130;8.244;2023-02-11T10:54:55;13.50;;;9.83;;
10166;SDS011;62970;53.130;8.244;2023-02-11T10:57:34;12.30;;;9.63;;
10166;SDS011;62970;53.130;8.244;2023-02-11T11:00:20;13.17;;;10.10;;
10166;SDS011;62970;53.130;8.244;2023-02-11T11:03:01;13.90;;;10.20;;
10166;SDS011;62970;53.130;8.244;2023-02-11T11:05:33;10.87;;;9.73;;
10166;SDS011;62970;53.130;8.244;2023-02-11T11:08:15;15.17;;;9.87;;
10166;SDS011;62970;53.130;8.244;2023-02-11T11:10:47;14.03;;;9.67;;
10166;SDS011;62970;53.130;8.244;2023-02-11T11:13:33;15.10;;;9.47;;
10166;SDS011;62970;53.130;8.244;2023-02-11T11:16:14;14.93;;;9.57;;
10166;SDS011;62970;53.130;8.244;2023-02-11T11:18:48;15.10;;;10.07;;
10166;SDS011;62970;53.130;8.244;2023-02-11T11:21:20;12.10;;;9.17;;
10166;SDS011;62970;53.130;8.244;2023-02-11T11:23:56;13.70;;;10.03;;
10166;SDS011;62970;53.130;8.244;2023-02-11T11:52:36;12.13;;;8.53;;
10166;SDS011;62970;53.130;8.244;2023-02-11T11:55:13;13.00;;;7.73;;
10166;SDS011;62970;53.130;8.244;2023-02-11T11:57:53;14.93;;;8.00;;
10166;SDS011;62970;53.130;8.244;2023-02-11T12:00:25;13.47;;;8.63;;
10166;SDS011;62970;53.130;8.244;2023-02-11T12:06:17;12.47;;;8.20;;
10166;SDS011;62970;53.130;8.244;2023-02-11T12:09:03;15.20;;;8.37;;
10166;SDS011;62970;53.130;8.244;2023-02-11T12:11:53;17.20;;;8.93;;
10166;SDS011;62970;53.130;8.244;2023-02-11T12:14:48;10.70;;;7.93;;
10166;SDS011;62970;53.130;8.244;2023-02-11T12:17:44;12.97;;;7.97;;
10166;SDS011;62970;53.130;8.244;2023-02-11T12:20:24;13.63;;;8.03;;
10166;SDS011;62970;53.130;8.244;2023-02-11T12:23:13;13.17;;;8.00;;
10166;SDS011;62970;53.130;8.244;2023-02-11T12:26:03;13.53;;;8.27;;
10166;SDS011;62970;53.130;8.244;2023-02-11T12:28:55;14.70;;;7.93;;
10166;SDS011;62970;53.130;8.244;2023-02-11T12:31:39;15.70;;;8.57;;
10166;SDS011;62970;53.130;8.244;2023-02-11T12:34:24;13.97;;;8.10;;
10166;SDS011;62970;53.130;8.244;2023-02-11T12:37:20;13.77;;;8.03;;
10166;SDS011;62970;53.130;8.244;2023-02-11T12:40:08;15.10;;;8.23;;
10166;SDS011;62970;53.130;8.244;2023-02-11T12:42:54;15.03;;;7.87;;
10166;SDS011;62970;53.130;8.244;2023-02-11T12:52:03;15.70;;;7.97;;
10166;SDS011;62970;53.130;8.244;2023-02-11T12:54:44;12.40;;;7.70;;
10166;SDS011;62970;53.130;8.244;2023-02-11T13:00:01;13.70;;;7.90;;
10166;SDS011;62970;53.130;8.244;2023-02-11T13:02:38;12.10;;;7.20;;
10166;SDS011;62970;53.130;8.244;2023-02-11T13:05:19;11.13;;;6.83;;
10166;SDS011;62970;53.130;8.244;2023-02-11T13:07:57;16.43;;;7.23;;
10166;SDS011;62970;53.130;8.244;2023-02-11T13:10:33;13.43;;;7.50;;
10166;SDS011;62970;53.130;8.244;2023-02-11T13:13:10;13.40;;;6.73;;
10166;SDS011;62970;53.130;8.244;2023-02-11T13:15:55;12.00;;;6.27;;
10166;SDS011;62970;53.130;8.244;2023-02-11T13:18:41;15.87;;;6.97;;
10166;SDS011;62970;53.130;8.244;2023-02-11T13:21:28;12.07;;;6.97;;
10166;SDS011;62970;53.130;8.244;2023-02-11T13:24:12;14.23;;;7.33;;
10166;SDS011;62970;53.130;8.244;2023-02-11T13:26:53;13.63;;;6.80;;
10166;SDS011;62970;53.130;8.244;2023-02-11T13:29:34;11.30;;;7.00;;
10166;SDS011;62970;53.130;8.244;2023-02-11T13:38:53;12.57;;;6.87;;
10166;SDS011;62970;53.130;8.244;2023-02-11T13:41:31;12.17;;;6.20;;
10166;SDS011;62970;53.130;8.244;2023-02-11T13:46:55;10.67;;;6.73;;
10166;SDS011;62970;53.130;8.244;2023-02-11T13:49:40;13.20;;;6.83;;
10166;SDS011;62970;53.130;8.244;2023-02-11T13:52:22;11.50;;;6.47;;
10166;SDS011;62970;53.130;8.244;2023-02-11T13:54:56;14.30;;;6.87;;
10166;SDS011;62970;53.130;8.244;2023-02-11T13:57:34;13.90;;;6.37;;
10166;SDS011;62970;53.130;8.244;2023-02-11T14:32:21;14.23;;;7.13;;
10166;SDS011;62970;53.130;8.244;2023-02-11T14:40:20;14.23;;;6.40;;
10166;SDS011;62970;53.130;8.244;2023-02-11T14:42:59;11.40;;;6.57;;
10166;SDS011;62970;53.130;8.244;2023-02-11T14:45:41;17.10;;;7.07;;
10166;SDS011;62970;53.130;8.244;2023-02-11T14:48:21;10.83;;;6.47;;
10166;SDS011;62970;53.130;8.244;2023-02-11T14:51:03;14.07;;;6.47;;
10166;SDS011;62970;53.130;8.244;2023-02-11T15:01:32;11.07;;;4.87;;
10166;SDS011;62970;53.130;8.244;2023-02-11T15:09:43;13.90;;;4.90;;
10166;SDS011;62970;53.130;8.244;2023-02-11T15:12:19;12.03;;;4.47;;
10166;SDS011;62970;53.130;8.244;2023-02-11T15:17:29;10.90;;;4.53;;
10166;SDS011;62970;53.130;8.244;2023-02-11T15:20:00;10.77;;;4.20;;
10166;SDS011;62970;53.130;8.244;2023-02-11T15:22:33;11.87;;;4.03;;
10166;SDS011;62970;53.130;8.244;2023-02-11T15:25:11;10.93;;;4.00;;
10166;SDS011;62970;53.130;8.244;2023-02-11T15:27:48;11.07;;;4.00;;
10166;SDS011;62970;53.130;8.244;2023-02-11T15:38:08;14.30;;;4.83;;
10166;SDS011;62970;53.130;8.244;2023-02-11T15:40:50;15.13;;;7.47;;
10166;SDS011;62970;53.130;8.244;2023-02-11T15:43:44;13.53;;;5.77;;
10166;SDS011;62970;53.130;8.244;2023-02-11T15:46:18;10.70;;;4.90;;
10166;SDS011;62970;53.130;8.244;2023-02-11T15:48:51;19.30;;;5.37;;
10166;SDS011;62970;53.130;8.244;2023-02-11T15:51:23;13.97;;;4.70;;
10166;SDS011;62970;53.130;8.244;2023-02-11T15:54:00;11.60;;;5.17;;
10166;SDS011;62970;53.130;8.244;2023-02-11T15:56:37;15.03;;;4.60;;
10166;SDS011;62970;53.130;8.244;2023-02-11T15:59:14;10.03;;;4.43;;
10166;SDS011;62970;53.130;8.244;2023-02-11T16:01:50;10.77;;;4.67;;
10166;SDS011;62970;53.130;8.244;2023-02-11T16:04:23;14.13;;;4.50;;
10166;SDS011;62970;53.130;8.244;2023-02-11T16:12:21;12.53;;;4.30;;
10166;SDS011;62970;53.130;8.244;2023-02-11T16:14:56;8.00;;;4.07;;
10166;SDS011;62970;53.130;8.244;2023-02-11T16:17:46;13.63;;;4.40;;
10166;SDS011;62970;53.130;8.244;2023-02-11T16:20:17;10.37;;;4.37;;
10166;SDS011;62970;53.130;8.244;2023-02-11T16:22:50;13.40;;;4.70;;
10166;SDS011;62970;53.130;8.244;2023-02-11T16:25:20;13.73;;;4.97;;
10166;SDS011;62970;53.130;8.244;2023-02-11T16:27:55;11.20;;;4.87;;
10166;SDS011;62970;53.130;8.244;2023-02-11T16:30:28;15.10;;;5.17;;
10166;SDS011;62970;53.130;8.244;2023-02-11T16:33:05;11.43;;;5.00;;
10166;SDS011;62970;53.130;8.244;2023-02-11T16:35:38;12.77;;;6.10;;
10166;SDS011;62970;53.130;8.244;2023-02-11T16:38:11;12.40;;;5.73;;
10166;SDS011;62970;53.130;8.244;2023-02-11T16:40:43;10.90;;;5.10;;
10166;SDS011;62970;53.130;8.244;2023-02-11T16:43:20;11.77;;;5.23;;
10166;SDS011;62970;53.130;8.244;2023-02-11T16:45:50;13.47;;;5.47;;
10166;SDS011;62970;53.130;8.244;2023-02-11T16:48:20;13.13;;;5.20;;
10166;SDS011;62970;53.130;8.244;2023-02-11T16:50:52;10.53;;;5.17;;
10166;SDS011;62970;53.130;8.244;2023-02-11T17:19:20;12.27;;;4.37;;
10166;SDS011;62970;53.130;8.244;2023-02-11T17:21:50;12.53;;;5.00;;
10166;SDS011;62970;53.130;8.244;2023-02-11T17:37:12;13.40;;;4.70;;
10166;SDS011;62970;53.130;8.244;2023-02-11T17:39:43;11.97;;;4.97;;
10166;SDS011;62970;53.130;8.244;2023-02-11T17:42:14;12.70;;;4.83;;
10166;SDS011;62970;53.130;8.244;2023-02-11T17:47:34;12.80;;;4.90;;
10166;SDS011;62970;53.130;8.244;2023-02-11T17:50:04;13.80;;;4.90;;
10166;SDS011;62970;53.130;8.244;2023-02-11T17:52:40;12.73;;;4.73;;
10166;SDS011;62970;53.130;8.244;2023-02-11T17:55:09;11.87;;;4.90;;
10166;SDS011;62970;53.130;8.244;2023-02-11T18:13:03;14.27;;;4.60;;
10166;SDS011;62970;53.130;8.244;2023-02-11T18:15:33;7.97;;;4.33;;
10166;SDS011;62970;53.130;8.244;2023-02-11T18:18:03;9.90;;;4.37;;
10166;SDS011;62970;53.130;8.244;2023-02-11T18:20:33;11.47;;;4.57;;
10166;SDS011;62970;53.130;8.244;2023-02-11T18:23:04;11.00;;;4.67;;
10166;SDS011;62970;53.130;8.244;2023-02-11T18:25:34;10.90;;;3.90;;
10166;SDS011;62970;53.130;8.244;2023-02-11T18:28:06;11.37;;;4.47;;
10166;SDS011;62970;53.130;8.244;2023-02-11T18:30:36;11.90;;;4.10;;
10166;SDS011;62970;53.130;8.244;2023-02-11T18:33:05;13.90;;;4.03;;
10166;SDS011;62970;53.130;8.244;2023-02-11T18:35:38;11.37;;;4.23;;
10166;SDS011;62970;53.130;8.244;2023-02-11T18:38:12;12.60;;;4.07;;
10166;SDS011;62970;53.130;8.244;2023-02-11T18:40:42;10.83;;;3.90;;
10166;SDS011;62970;53.130;8.244;2023-02-11T18:43:17;12.23;;;4.60;;
10166;SDS011;62970;53.130;8.244;2023-02-11T18:45:49;11.77;;;4.67;;
10166;SDS011;62970;53.130;8.244;2023-02-11T18:48:20;9.73;;;4.63;;
10166;SDS011;62970;53.130;8.244;2023-02-11T18:50:51;11.87;;;4.33;;
10166;SDS011;62970;53.130;8.244;2023-02-11T18:53:22;15.23;;;5.00;;
10166;SDS011;62970;53.130;8.244;2023-02-11T18:55:51;10.47;;;4.67;;
10166;SDS011;62970;53.130;8.244;2023-02-11T18:58:25;10.17;;;4.77;;
10166;SDS011;62970;53.130;8.244;2023-02-11T19:00:56;15.70;;;5.47;;
10166;SDS011;62970;53.130;8.244;2023-02-11T19:03:28;11.43;;;4.50;;
10166;SDS011;62970;53.130;8.244;2023-02-11T19:05:59;9.40;;;4.03;;
10166;SDS011;62970;53.130;8.244;2023-02-11T19:08:29;12.63;;;4.60;;
10166;SDS011;62970;53.130;8.244;2023-02-11T19:10:58;11.53;;;4.87;;
10166;SDS011;62970;53.130;8.244;2023-02-11T19:13:34;10.60;;;4.30;;
10166;SDS011;62970;53.130;8.244;2023-02-11T19:16:06;10.33;;;4.13;;
10166;SDS011;62970;53.130;8.244;2023-02-11T19:18:38;8.57;;;4.30;;
10166;SDS011;62970;53.130;8.244;2023-02-11T19:21:08;11.70;;;4.03;;
10166;SDS011;62970;53.130;8.244;2023-02-11T19:23:39;9.73;;;3.70;;
10166;SDS011;62970;53.130;8.244;2023-02-11T19:26:11;8.97;;;4.23;;
10166;SDS011;62970;53.130;8.244;2023-02-11T19:28:43;9.17;;;3.63;;
10166;SDS011;62970;53.130;8.244;2023-02-11T19:31:13;11.50;;;3.50;;
10166;SDS011;62970;53.130;8.244;2023-02-11T19:33:48;9.03;;;3.57;;
10166;SDS011;62970;53.130;8.244;2023-02-11T19:36:17;10.80;;;3.63;;
10166;SDS011;62970;53.130;8.244;2023-02-11T19:38:46;13.77;;;3.77;;
10166;SDS011;62970;53.130;8.244;2023-02-11T19:41:16;10.30;;;3.63;;
10166;SDS011;62970;53.130;8.244;2023-02-11T19:43:50;10.80;;;3.93;;
10166;SDS011;62970;53.130;8.244;2023-02-11T19:46:21;9.93;;;3.57;;
10166;SDS011;62970;53.130;8.244;2023-02-11T19:48:54;11.33;;;4.37;;
10166;SDS011;62970;53.130;8.244;2023-02-11T19:51:29;11.50;;;3.90;;
10166;SDS011;62970;53.130;8.244;2023-02-11T19:54:07;9.40;;;3.63;;
10166;SDS011;62970;53.130;8.244;2023-02-11T19:56:39;10.23;;;3.53;;
10166;SDS011;62970;53.130;8.244;2023-02-11T19:59:21;8.57;;;3.13;;
10166;SDS011;62970;53.130;8.244;2023-02-11T20:01:51;8.23;;;4.40;;
10166;SDS011;62970;53.130;8.244;2023-02-11T20:04:21;15.93;;;8.27;;
10166;SDS011;62970;53.130;8.244;2023-02-11T20:06:51;16.27;;;5.80;;
10166;SDS011;62970;53.130;8.244;2023-02-11T20:09:21;17.57;;;9.37;;
10166;SDS011;62970;53.130;8.244;2023-02-11T20:11:50;13.03;;;5.63;;
10166;SDS011;62970;53.130;8.244;2023-02-11T20:14:22;16.73;;;4.83;;
10166;SDS011;62970;53.130;8.244;2023-02-11T20:16:51;16.87;;;5.43;;
10166;SDS011;62970;53.130;8.244;2023-02-11T20:19:21;14.70;;;4.90;;
10166;SDS011;62970;53.130;8.244;2023-02-11T20:21:52;12.97;;;4.13;;
10166;SDS011;62970;53.130;8.244;2023-02-11T20:24:23;11.50;;;3.93;;
10166;SDS011;62970;53.130;8.244;2023-02-11T20:26:53;11.53;;;4.53;;
10166;SDS011;62970;53.130;8.244;2023-02-11T20:29:28;9.83;;;4.23;;
10166;SDS011;62970;53.130;8.244;2023-02-11T20:31:58;14.73;;;6.80;;
10166;SDS011;62970;53.130;8.244;2023-02-11T20:34:31;14.10;;;4.97;;
10166;SDS011;62970;53.130;8.244;2023-02-11T20:37:03;10.33;;;4.67;;
10166;SDS011;62970;53.130;8.244;2023-02-11T20:39:37;9.53;;;4.47;;
10166;SDS011;62970;53.130;8.244;2023-02-11T20:42:07;12.27;;;4.43;;
10166;SDS011;62970;53.130;8.244;2023-02-11T20:44:44;12.47;;;4.93;;
10166;SDS011;62970;53.130;8.244;2023-02-11T20:47:13;10.03;;;4.60;;
10166;SDS011;62970;53.130;8.244;2023-02-11T20:49:43;12.10;;;4.50;;
10166;SDS011;62970;53.130;8.244;2023-02-11T20:52:12;14.63;;;4.70;;
10166;SDS011;62970;53.130;8.244;2023-02-11T20:54:44;14.43;;;5.00;;
10166;SDS011;62970;53.130;8.244;2023-02-11T20:57:13;10.53;;;3.87;;
10166;SDS011;62970;53.130;8.244;2023-02-11T20:59:45;16.87;;;4.90;;
10166;SDS011;62970;53.130;8.244;2023-02-11T21:02:14;9.77;;;4.60;;
10166;SDS011;62970;53.130;8.244;2023-02-11T21:04:44;11.60;;;4.80;;
10166;SDS011;62970;53.130;8.244;2023-02-11T21:07:15;14.03;;;4.73;;
10166;SDS011;62970;53.130;8.244;2023-02-11T21:09:45;10.57;;;4.70;;
10166;SDS011;62970;53.130;8.244;2023-02-11T21:12:14;8.83;;;4.43;;
10166;SDS011;62970;53.130;8.244;2023-02-11T21:14:46;12.63;;;4.80;;
10166;SDS011;62970;53.130;8.244;2023-02-11T21:17:17;15.67;;;5.43;;
10166;SDS011;62970;53.130;8.244;2023-02-11T21:19:47;9.40;;;4.40;;
10166;SDS011;62970;53.130;8.244;2023-02-11T21:22:16;12.13;;;4.80;;
10166;SDS011;62970;53.130;8.244;2023-02-11T21:24:46;13.33;;;5.10;;
10166;SDS011;62970;53.130;8.244;2023-02-11T21:27:17;13.17;;;5.10;;
10166;SDS011;62970;53.130;8.244;2023-02-11T21:29:50;11.33;;;4.93;;
10166;SDS011;62970;53.130;8.244;2023-02-11T21:32:20;11.90;;;4.53;;
10166;SDS011;62970;53.130;8.244;2023-02-11T21:34:49;16.73;;;4.87;;
10166;SDS011;62970;53.130;8.244;2023-02-11T21:37:18;10.13;;;4.53;;
10166;SDS011;62970;53.130;8.244;2023-02-11T21:39:51;11.67;;;4.50;;
10166;SDS011;62970;53.130;8.244;2023-02-11T21:42:21;17.20;;;5.20;;
10166;SDS011;62970;53.130;8.244;2023-02-11T21:44:54;12.70;;;4.93;;
10166;SDS011;62970;53.130;8.244;2023-02-11T21:47:24;10.43;;;4.80;;
10166;SDS011;62970;53.130;8.244;2023-02-11T21:49:54;12.10;;;5.23;;
10166;SDS011;62970;53.130;8.244;2023-02-11T21:52:24;12.80;;;5.03;;
10166;SDS011;62970;53.130;8.244;2023-02-11T21:55:01;12.97;;;5.20;;
10166;SDS011;62970;53.130;8.244;2023-02-11T21:57:30;12.67;;;4.60;;
10166;SDS011;62970;53.130;8.244;2023-02-11T22:00:03;8.67;;;4.50;;
10166;SDS011;62970;53.130;8.244;2023-02-11T22:02:36;11.63;;;4.67;;
10166;SDS011;62970;53.130;8.244;2023-02-11T22:05:06;14.90;;;4.93;;
10166;SDS011;62970;53.130;8.244;2023-02-11T22:07:35;12.33;;;4.60;;
10166;SDS011;62970;53.130;8.244;2023-02-11T22:10:06;13.83;;;4.83;;
10166;SDS011;62970;53.130;8.244;2023-02-11T22:12:36;13.43;;;5.37;;
10166;SDS011;62970;53.130;8.244;2023-02-11T22:15:10;14.27;;;5.67;;
10166;SDS011;62970;53.130;8.244;2023-02-11T22:17:40;13.33;;;5.73;;
10166;SDS011;62970;53.130;8.244;2023-02-11T22:20:10;15.57;;;5.63;;
10166;SDS011;62970;53.130;8.244;2023-02-11T22:22:41;16.47;;;5.60;;
10166;SDS011;62970;53.130;8.244;2023-02-11T22:25:10;11.50;;;5.87;;
10166;SDS011;62970;53.130;8.244;2023-02-11T22:27:40;13.73;;;5.97;;
10166;SDS011;62970;53.130;8.244;2023-02-11T22:30:13;12.77;;;6.30;;
10166;SDS011;62970;53.130;8.244;2023-02-11T22:32:43;26.87;;;14.30;;
10166;SDS011;62970;53.130;8.244;2023-02-11T22:35:12;16.10;;;9.13;;
10166;SDS011;62970;53.130;8.244;2023-02-11T22:37:41;14.53;;;8.30;;
10166;SDS011;62970;53.130;8.244;2023-02-11T22:40:11;19.10;;;7.83;;
10166;SDS011;62970;53.130;8.244;2023-02-11T22:42:41;11.73;;;7.67;;
10166;SDS011;62970;53.130;8.244;2023-02-11T22:45:12;12.03;;;7.30;;
10166;SDS011;62970;53.130;8.244;2023-02-11T22:47:42;15.40;;;8.13;;
10166;SDS011;62970;53.130;8.244;2023-02-11T22:50:12;12.27;;;7.70;;
10166;SDS011;62970;53.130;8.244;2023-02-11T22:52:41;13.07;;;7.80;;
10166;SDS011;62970;53.130;8.244;2023-02-11T22:55:10;14.80;;;7.13;;
10166;SDS011;62970;53.130;8.244;2023-02-11T22:57:42;11.60;;;7.33;;
10166;SDS011;62970;53.130;8.244;2023-02-11T23:00:14;11.03;;;7.27;;
10166;SDS011;62970;53.130;8.244;2023-02-11T23:02:45;10.77;;;6.17;;
10166;SDS011;62970;53.130;8.244;2023-02-11T23:05:14;9.73;;;6.27;;
10166;SDS011;62970;53.130;8.244;2023-02-11T23:07:44;9.70;;;5.93;;
10166;SDS011;62970;53.130;8.244;2023-02-11T23:10:13;12.30;;;6.57;;
10166;SDS011;62970;53.130;8.244;2023-02-11T23:12:42;10.47;;;6.57;;
10166;SDS011;62970;53.130;8.244;2023-02-11T23:15:15;11.30;;;6.53;;
10166;SDS011;62970;53.130;8.244;2023-02-11T23:17:47;13.67;;;6.90;;
10166;SDS011;62970;53.130;8.244;2023-02-11T23:20:17;12.03;;;6.97;;
10166;SDS011;62970;53.130;8.244;2023-02-11T23:22:48;11.63;;;7.40;;
10166;SDS011;62970;53.130;8.244;2023-02-11T23:25:18;11.83;;;7.70;;
10166;SDS011;62970;53.130;8.244;2023-02-11T23:27:51;13.80;;;8.00;;
10166;SDS011;62970;53.130;8.244;2023-02-11T23:30:23;11.60;;;7.20;;
10166;SDS011;62970;53.130;8.244;2023-02-11T23:32:53;10.83;;;8.13;;
10166;SDS011;62970;53.130;8.244;2023-02-11T23:35:22;11.27;;;7.77;;
10166;SDS011;62970;53.130;8.244;2023-02-11T23:37:51;11.03;;;7.93;;
10166;SDS011;62970;53.130;8.244;2023-02-11T23:40:21;12.13;;;7.70;;
10166;SDS011;62970;53.130;8.244;2023-02-11T23:42:50;12.63;;;8.33;;
10166;SDS011;62970;53.130;8.244;2023-02-11T23:45:19;12.93;;;8.30;;
10166;SDS011;62970;53.130;8.244;2023-02-11T23:47:52;12.47;;;8.83;;
10166;SDS011;62970;53.130;8.244;2023-02-11T23:50:22;10.93;;;8.30;;
10166;SDS011;62970;53.130;8.244;2023-02-11T23:52:51;10.97;;;7.67;;
10166;SDS011;62970;53.130;8.244;2023-02-11T23:55:20;11.00;;;8.23;;
10166;SDS011;62970;53.130;8.244;2023-02-11T23:57:50;10.73;;;7.67;;
